Time;durP1;ratioP1;P1;durP2;ratioP2;P2;SDS_P1;SDS_P2;PMS_P1;PMS_P2;Temp;Humidity;BMP_temperature;BMP_pressure;BME280_temperature;BME280_humidity;BME280_pressure;Samples;Min_cycle;Max_cycle;Signal;HPM_P1;HPM_P2
2021/08/01 00:01:54;;;;;;;;;;;;;;;23.25;43.48;100414.56;5039918;28;96868;-84
2021/08/01 00:04:20;;;;;;;;;;;;;;;23.20;43.53;100416.88;5038770;28;96738;-84
2021/08/01 00:06:47;;;;;;;;;;;;;;;23.41;43.04;100409.47;5037946;28;101082;-83
2021/08/01 00:09:14;;;;;;;;;;;;;;;23.34;43.14;100416.44;5040287;28;100235;-84
2021/08/01 00:11:41;;;;;;;;;;;;;;;23.10;43.89;100426.81;5039529;28;96725;-85
2021/08/01 00:14:07;;;;;;;;;;;;;;;23.25;43.25;100433.44;5040285;28;97361;-85
2021/08/01 00:16:34;;;;;;;;;;;;;;;23.28;43.04;100427.78;5041259;28;99279;-84
2021/08/01 00:19:01;;;;;;;;;;;;;;;22.93;44.05;100422.97;5045703;27;96796;-84
2021/08/01 00:21:30;;;;;;;;;;;;;;;23.08;43.59;100421.56;5052584;27;96668;-84
2021/08/01 00:23:56;;;;;;;;;;;;;;;23.18;43.58;100419.69;5053154;28;96542;-84
2021/08/01 00:26:23;;;;;;;;;;;;;;;23.00;43.92;100413.31;5053196;27;99792;-84
2021/08/01 00:28:50;;;;;;;;;;;;;;;23.00;44.18;100414.19;5052928;28;97298;-84
2021/08/01 00:31:16;;;;;;;;;;;;;;;23.31;43.35;100406.75;5038860;28;96716;-84
2021/08/01 00:33:42;;;;;;;;;;;;;;;22.99;44.07;100417.84;5024721;28;97070;-85
2021/08/01 00:36:10;;;;;;;;;;;;;;;22.83;44.59;100422.97;5020375;28;101093;-84
2021/08/01 00:38:37;;;;;;;;;;;;;;;23.09;43.89;100423.25;5023594;28;98148;-83
2021/08/01 00:41:04;;;;;;;;;;;;;;;22.64;45.07;100414.84;5048332;27;96968;-84
2021/08/01 00:43:31;;;;;;;;;;;;;;;22.98;44.30;100421.53;5040830;27;95977;-86
2021/08/01 00:45:58;;;;;;;;;;;;;;;23.05;44.04;100429.91;5029566;27;97971;-83
2021/08/01 00:48:26;;;;;;;;;;;;;;;23.06;44.17;100423.53;5063778;22;98197;-83
2021/08/01 00:50:53;;;;;;;;;;;;;;;23.17;43.98;100420.69;5024427;28;96407;-83
2021/08/01 00:53:21;;;;;;;;;;;;;;;23.18;43.84;100411.59;5025047;28;96727;-83
2021/08/01 00:55:47;;;;;;;;;;;;;;;23.20;43.97;100424.94;4998115;28;101531;-83
2021/08/01 00:58:14;;;;;;;;;;;;;;;23.08;44.30;100426.09;5002532;28;99012;-82
2021/08/01 01:01:03;;;;;;;;;;;;;;;23.05;44.17;100422.69;5003970;28;96981;-82
2021/08/01 01:03:31;;;;;;;;;;;;;;;23.09;43.96;100425.09;4997945;28;96700;-83
2021/08/01 01:05:59;;;;;;;;;;;;;;;23.02;44.31;100412.19;4999871;28;97810;-83
2021/08/01 01:08:30;;;;;;;;;;;;;;;23.13;44.02;100413.03;5013938;28;99084;-83
2021/08/01 01:10:59;;;;;;;;;;;;;;;23.09;44.09;100412.47;5000918;28;97194;-83
2021/08/01 01:13:28;;;;;;;;;;;;;;;23.03;44.36;100413.91;5000576;28;96929;-82
2021/08/01 01:15:55;;;;;;;;;;;;;;;23.15;43.92;100411.91;5005000;28;101593;-83
2021/08/01 01:18:23;;;;;;;;;;;;;;;23.06;44.35;100412.75;5008546;28;99376;-82
2021/08/01 01:21:04;;;;;;;;;;;;;;;22.94;44.65;100416.59;5001713;28;96905;-82
2021/08/01 01:23:48;;;;;;;;;;;;;;;22.90;44.87;100417.88;5009982;28;98291;-84
2021/08/01 01:26:24;;;;;;;;;;;;;;;22.87;44.82;100419.00;4997758;28;100836;-83
2021/08/01 01:28:53;;;;;;;;;;;;;;;22.98;44.68;100424.22;4998032;28;99488;-83
2021/08/01 01:31:32;;;;;;;;;;;;;;;22.98;44.43;100423.38;5000046;28;96857;-83
2021/08/01 01:34:03;;;;;;;;;;;;;;;22.93;44.86;100425.66;4983607;28;96855;-83
2021/08/01 01:36:32;;;;;;;;;;;;;;;23.06;44.70;100431.63;4999666;28;97857;-84
2021/08/01 01:39:02;;;;;;;;;;;;;;;23.07;44.54;100414.47;5005158;28;96948;-82
2021/08/01 01:41:28;;;;;;;;;;;;;;;22.95;44.74;100427.22;5000679;28;96643;-84
2021/08/01 01:43:55;;;;;;;;;;;;;;;22.87;44.93;100426.22;5014203;28;97042;-83
2021/08/01 01:46:22;;;;;;;;;;;;;;;22.85;44.95;100420.97;4997875;28;97781;-83
2021/08/01 01:48:50;;;;;;;;;;;;;;;22.82;45.10;100412.31;4991338;28;98639;-83
2021/08/01 01:51:16;;;;;;;;;;;;;;;22.93;44.87;100421.13;5005383;28;96794;-84
2021/08/01 01:53:44;;;;;;;;;;;;;;;22.77;45.08;100428.91;5006331;28;96800;-83
2021/08/01 01:56:13;;;;;;;;;;;;;;;22.84;44.92;100421.94;4998839;28;100263;-83
2021/08/01 01:58:39;;;;;;;;;;;;;;;22.84;44.83;100435.41;4999139;28;97854;-84
2021/08/01 02:01:06;;;;;;;;;;;;;;;22.75;45.06;100430.91;4999357;28;96789;-84
2021/08/01 02:03:32;;;;;;;;;;;;;;;22.67;45.37;100431.56;4987541;28;97265;-84
2021/08/01 02:05:59;;;;;;;;;;;;;;;22.50;45.79;100421.47;4978179;28;99390;-84
2021/08/01 02:08:26;;;;;;;;;;;;;;;22.13;46.45;100414.97;5002857;28;101083;-84
2021/08/01 02:10:55;;;;;;;;;;;;;;;22.34;46.38;100414.91;4997152;28;96915;-84
2021/08/01 02:13:24;;;;;;;;;;;;;;;21.81;47.81;100407.88;4998024;28;98747;-83
2021/08/01 02:15:54;;;;;;;;;;;;;;;22.22;46.69;100398.88;4998452;28;98100;-83
2021/08/01 02:18:24;;;;;;;;;;;;;;;22.42;46.37;100407.84;4998743;28;100799;-84
2021/08/01 02:20:52;;;;;;;;;;;;;;;22.46;46.13;100409.25;4998593;28;96862;-86
2021/08/01 02:23:20;;;;;;;;;;;;;;;22.15;47.17;100416.53;4998031;28;96862;-82
2021/08/01 02:25:47;;;;;;;;;;;;;;;22.42;46.46;100418.59;4998265;28;97052;-83
2021/08/01 02:28:16;;;;;;;;;;;;;;;22.48;46.43;100418.06;4997471;28;98198;-85
2021/08/01 02:30:44;;;;;;;;;;;;;;;22.51;46.52;100416.94;5005383;28;99078;-83
2021/08/01 02:33:11;;;;;;;;;;;;;;;22.55;46.71;100421.03;4996461;28;98204;-83
2021/08/01 02:35:38;;;;;;;;;;;;;;;21.98;47.90;100413.66;4997303;28;96979;-83
2021/08/01 02:38:05;;;;;;;;;;;;;;;22.11;47.87;100416.97;4996540;28;99026;-84
2021/08/01 02:40:36;;;;;;;;;;;;;;;22.25;47.73;100421.97;4977941;28;96788;-84
2021/08/01 02:43:04;;;;;;;;;;;;;;;22.10;47.83;100421.50;4994738;28;97075;-84
2021/08/01 02:45:34;;;;;;;;;;;;;;;22.10;48.11;100420.63;4996826;28;98285;-83
2021/08/01 02:48:01;;;;;;;;;;;;;;;22.27;47.55;100423.50;4997605;28;100391;-83
2021/08/01 02:50:30;;;;;;;;;;;;;;;22.39;47.37;100418.88;4998171;28;96817;-83
2021/08/01 02:52:58;;;;;;;;;;;;;;;22.44;47.08;100427.41;5001381;28;98760;-82
2021/08/01 02:55:25;;;;;;;;;;;;;;;22.56;46.92;100420.91;4995198;28;100507;-84
2021/08/01 02:57:53;;;;;;;;;;;;;;;22.42;47.28;100421.31;4989321;28;99688;-83
2021/08/01 03:00:20;;;;;;;;;;;;;;;22.51;46.95;100430.41;5000591;28;97072;-84
2021/08/01 03:02:49;;;;;;;;;;;;;;;22.33;47.58;100434.72;4986991;28;97116;-83
2021/08/01 03:05:15;;;;;;;;;;;;;;;22.45;47.29;100439.03;4981017;28;100358;-83
2021/08/01 03:07:43;;;;;;;;;;;;;;;22.52;46.97;100445.53;4995206;28;99080;-83
2021/08/01 03:10:10;;;;;;;;;;;;;;;22.41;47.10;100445.66;4997882;28;96898;-83
2021/08/01 03:12:41;;;;;;;;;;;;;;;22.38;47.29;100443.25;4998920;28;97440;-82
2021/08/01 03:15:08;;;;;;;;;;;;;;;22.31;47.51;100434.88;5001247;28;98313;-82
2021/08/01 03:17:36;;;;;;;;;;;;;;;22.38;47.43;100429.78;5016997;28;99302;-83
2021/08/01 03:20:06;;;;;;;;;;;;;;;22.35;47.57;100432.75;5017984;28;96931;-85
2021/08/01 03:22:32;;;;;;;;;;;;;;;22.31;47.54;100436.72;5004986;28;96794;-84
2021/08/01 03:25:00;;;;;;;;;;;;;;;22.42;47.39;100448.22;5001493;28;100721;-85
2021/08/01 03:27:26;;;;;;;;;;;;;;;22.37;47.45;100449.63;5007358;28;97809;-85
2021/08/01 03:29:54;;;;;;;;;;;;;;;22.13;48.33;100431.09;5007662;28;96748;-85
2021/08/01 03:32:22;;;;;;;;;;;;;;;22.10;48.50;100423.31;4994518;28;96811;-86
2021/08/01 03:34:49;;;;;;;;;;;;;;;22.11;48.33;100419.66;4990517;28;101502;-85
2021/08/01 03:37:18;;;;;;;;;;;;;;;22.11;48.43;100435.78;4999497;28;97964;-85
2021/08/01 03:39:46;;;;;;;;;;;;;;;22.24;48.20;100436.41;5000264;28;96783;-85
2021/08/01 03:42:12;;;;;;;;;;;;;;;22.25;48.11;100433.56;4998484;28;96794;-85
2021/08/01 03:44:39;;;;;;;;;;;;;;;22.26;48.08;100440.66;4998656;28;97897;-84
2021/08/01 03:47:05;;;;;;;;;;;;;;;22.30;47.95;100438.56;5010470;28;100073;-84
2021/08/01 03:49:32;;;;;;;;;;;;;;;22.34;47.86;100436.44;5018102;28;96023;-82
2021/08/01 03:51:58;;;;;;;;;;;;;;;22.14;48.52;100432.81;5018551;28;97037;-83
2021/08/01 03:54:26;;;;;;;;;;;;;;;22.37;48.07;100426.25;5018519;28;100011;-84
2021/08/01 03:56:52;;;;;;;;;;;;;;;22.30;48.37;100430.47;5017772;28;98072;-83
2021/08/01 03:59:18;;;;;;;;;;;;;;;22.19;48.98;100428.72;5017425;28;96614;-83
2021/08/01 04:01:45;;;;;;;;;;;;;;;22.30;48.50;100427.78;5004215;28;96844;-83
2021/08/01 04:04:11;;;;;;;;;;;;;;;22.10;48.90;100440.31;4999379;28;100207;-83
2021/08/01 04:06:38;;;;;;;;;;;;;;;22.32;48.23;100439.25;4996285;28;97961;-83
2021/08/01 04:09:05;;;;;;;;;;;;;;;21.88;49.21;100441.31;4996641;28;96702;-83
2021/08/01 04:11:33;;;;;;;;;;;;;;;22.21;48.78;100432.13;4996281;28;96830;-83
2021/08/01 04:13:59;;;;;;;;;;;;;;;22.26;48.62;100434.41;4995059;28;99482;-82
2021/08/01 04:16:26;;;;;;;;;;;;;;;21.85;50.01;100438.91;4995101;28;98061;-83
2021/08/01 04:18:52;;;;;;;;;;;;;;;21.43;51.38;100445.28;4995755;28;96706;-83
2021/08/01 04:21:19;;;;;;;;;;;;;;;21.64;51.03;100435.38;4998218;28;96821;-83
2021/08/01 04:23:45;;;;;;;;;;;;;;;21.76;50.47;100438.84;4997942;28;98098;-84
2021/08/01 04:26:11;;;;;;;;;;;;;;;21.63;50.96;100430.13;4995709;28;98850;-85
2021/08/01 04:28:40;;;;;;;;;;;;;;;21.06;52.20;100429.56;4996788;28;96886;-84
2021/08/01 04:31:06;;;;;;;;;;;;;;;21.79;50.79;100430.53;4997341;28;96995;-84
2021/08/01 04:33:33;;;;;;;;;;;;;;;21.63;50.67;100428.28;5002316;28;97807;-84
2021/08/01 04:36:00;;;;;;;;;;;;;;;22.12;49.66;100426.75;5006422;28;99212;-85
2021/08/01 04:38:26;;;;;;;;;;;;;;;22.13;49.54;100428.41;5013354;28;96796;-85
2021/08/01 04:40:53;;;;;;;;;;;;;;;21.80;50.75;100424.13;5017064;28;96800;-85
2021/08/01 04:43:19;;;;;;;;;;;;;;;22.03;50.02;100432.91;5007489;28;99060;-85
2021/08/01 04:45:47;;;;;;;;;;;;;;;21.70;51.43;100426.78;5017367;28;96813;-86
2021/08/01 04:48:14;;;;;;;;;;;;;;;22.23;49.82;100421.25;5008472;28;96828;-85
2021/08/01 04:50:41;;;;;;;;;;;;;;;22.41;49.10;100419.59;4983963;28;98019;-86
2021/08/01 04:53:08;;;;;;;;;;;;;;;21.91;50.43;100428.59;4991565;28;101346;-85
2021/08/01 04:55:35;;;;;;;;;;;;;;;22.43;49.16;100425.69;4995828;28;98967;-86
2021/08/01 04:58:02;;;;;;;;;;;;;;;22.54;48.63;100430.09;4982471;28;97225;-85
2021/08/01 05:00:28;;;;;;;;;;;;;;;22.34;49.21;100431.03;4998926;28;96918;-83
2021/08/01 05:02:58;;;;;;;;;;;;;;;21.90;50.66;100432.25;4999702;28;96738;-83
2021/08/01 05:05:25;;;;;;;;;;;;;;;22.12;49.99;100430.25;4998792;28;97778;-84
2021/08/01 05:07:52;;;;;;;;;;;;;;;22.57;48.91;100432.53;5001376;28;96955;-85
2021/08/01 05:10:18;;;;;;;;;;;;;;;22.22;49.41;100428.47;5000668;28;97020;-84
2021/08/01 05:12:45;;;;;;;;;;;;;;;22.25;49.54;100427.34;4999510;28;100530;-84
2021/08/01 05:15:12;;;;;;;;;;;;;;;22.69;48.77;100430.56;4999166;28;99989;-84
2021/08/01 05:17:40;;;;;;;;;;;;;;;22.77;48.42;100433.47;5003594;28;96907;-84
2021/08/01 05:20:09;;;;;;;;;;;;;;;22.38;49.61;100430.66;5002045;28;97082;-84
2021/08/01 05:22:35;;;;;;;;;;;;;;;22.44;49.49;100443.56;5003808;28;100260;-82
2021/08/01 05:25:01;;;;;;;;;;;;;;;22.53;49.13;100447.25;5017075;28;99656;-83
2021/08/01 05:27:28;;;;;;;;;;;;;;;22.25;50.05;100448.88;5019896;28;96755;-82
2021/08/01 05:29:54;;;;;;;;;;;;;;;22.90;48.30;100444.81;5007146;28;96876;-83
2021/08/01 05:32:21;;;;;;;;;;;;;;;22.40;49.33;100447.50;5004790;28;97844;-84
2021/08/01 05:34:47;;;;;;;;;;;;;;;22.04;50.32;100440.88;5008101;28;99277;-84
2021/08/01 05:37:15;;;;;;;;;;;;;;;22.65;48.88;100446.13;4990577;28;96520;-83
2021/08/01 05:39:41;;;;;;;;;;;;;;;23.04;47.58;100444.38;4995200;28;97617;-86
2021/08/01 05:42:08;;;;;;;;;;;;;;;23.00;48.02;100445.66;4999125;28;99279;-85
2021/08/01 05:44:34;;;;;;;;;;;;;;;23.23;47.11;100444.41;4999421;28;101038;-83
2021/08/01 05:47:06;;;;;;;;;;;;;;;23.32;47.11;100454.31;4999240;28;96847;-83
2021/08/01 05:49:32;;;;;;;;;;;;;;;23.23;47.08;100457.88;4998849;28;96843;-85
2021/08/01 05:51:59;;;;;;;;;;;;;;;22.49;48.98;100446.69;4998235;28;98943;-84
2021/08/01 05:54:27;;;;;;;;;;;;;;;22.24;49.78;100445.34;4997231;28;99297;-84
2021/08/01 05:56:53;;;;;;;;;;;;;;;21.80;51.25;100437.56;4997338;28;97308;-84
2021/08/01 05:59:20;;;;;;;;;;;;;;;22.50;49.60;100448.41;4999623;28;96808;-85
2021/08/01 06:01:46;;;;;;;;;;;;;;;22.67;48.97;100439.63;4997794;28;102212;-84
2021/08/01 06:04:14;;;;;;;;;;;;;;;22.80;48.49;100441.25;4996413;28;97722;-82
2021/08/01 06:06:40;;;;;;;;;;;;;;;22.79;48.44;100432.31;4984333;28;97065;-82
2021/08/01 06:09:07;;;;;;;;;;;;;;;22.68;48.72;100424.31;4980620;28;98823;-82
2021/08/01 06:11:35;;;;;;;;;;;;;;;22.74;48.47;100428.34;4996193;28;99473;-82
2021/08/01 06:14:01;;;;;;;;;;;;;;;22.75;48.39;100419.25;4997111;28;101115;-82
2021/08/01 06:16:28;;;;;;;;;;;;;;;23.04;47.47;100420.97;4995190;28;96969;-81
2021/08/01 06:18:55;;;;;;;;;;;;;;;23.29;46.71;100424.94;4995713;28;96982;-83
2021/08/01 06:21:21;;;;;;;;;;;;;;;22.91;47.71;100430.31;4995958;28;99438;-83
2021/08/01 06:23:49;;;;;;;;;;;;;;;21.77;50.27;100433.34;4997453;28;99131;-84
2021/08/01 06:26:16;;;;;;;;;;;;;;;22.53;48.32;100437.31;4992304;28;96588;-84
2021/08/01 06:28:45;;;;;;;;;;;;;;;22.55;48.50;100445.28;4999688;28;97059;-85
2021/08/01 06:31:12;;;;;;;;;;;;;;;22.55;48.29;100439.91;5005836;28;98253;-85
2021/08/01 06:33:38;;;;;;;;;;;;;;;22.98;46.85;100437.69;5006452;28;98160;-85
2021/08/01 06:36:05;;;;;;;;;;;;;;;23.66;45.72;100433.16;5005860;28;96876;-82
2021/08/01 06:38:31;;;;;;;;;;;;;;;23.40;45.87;100432.88;5001961;28;96770;-82
2021/08/01 06:40:58;;;;;;;;;;;;;;;23.41;45.78;100436.44;4998900;28;100162;-83
2021/08/01 06:43:24;;;;;;;;;;;;;;;23.90;44.98;100437.19;4998087;28;100896;-82
2021/08/01 06:45:52;;;;;;;;;;;;;;;24.22;43.46;100441.19;4997599;28;98545;-83
2021/08/01 06:48:18;;;;;;;;;;;;;;;24.31;43.37;100439.47;4995656;28;100156;-81
2021/08/01 06:50:45;;;;;;;;;;;;;;;24.29;43.44;100438.75;4999355;28;98266;-83
2021/08/01 06:53:11;;;;;;;;;;;;;;;24.29;42.99;100435.19;4995294;28;98306;-85
2021/08/01 06:55:38;;;;;;;;;;;;;;;24.39;42.83;100434.16;5000946;28;96698;-82
2021/08/01 06:58:04;;;;;;;;;;;;;;;24.53;42.27;100436.38;4996127;28;98601;-82
2021/08/01 07:00:31;;;;;;;;;;;;;;;24.55;42.32;100441.59;5004696;28;101233;-85
2021/08/01 07:02:59;;;;;;;;;;;;;;;24.50;41.98;100446.59;5005821;28;99047;-84
2021/08/01 07:05:27;;;;;;;;;;;;;;;23.61;44.11;100445.38;5013441;28;96758;-83
2021/08/01 07:07:55;;;;;;;;;;;;;;;24.10;43.60;100457.69;5018925;28;96616;-84
2021/08/01 07:10:21;;;;;;;;;;;;;;;24.55;42.07;100455.09;5017559;28;100131;-84
2021/08/01 07:12:47;;;;;;;;;;;;;;;24.62;42.09;100459.75;5017874;28;100463;-84
2021/08/01 07:15:15;;;;;;;;;;;;;;;24.68;42.08;100463.69;5011062;28;97382;-85
2021/08/01 07:17:42;;;;;;;;;;;;;;;24.86;42.14;100458.34;5001091;28;96816;-85
2021/08/01 07:20:11;;;;;;;;;;;;;;;24.84;42.18;100455.78;4999313;28;98444;-84
2021/08/01 07:22:37;;;;;;;;;;;;;;;24.65;42.53;100452.34;4997500;28;99579;-83
2021/08/01 07:25:04;;;;;;;;;;;;;;;24.56;42.59;100448.69;4998413;28;96874;-83
2021/08/01 07:27:31;;;;;;;;;;;;;;;24.43;42.82;100450.91;4998863;28;96846;-84
2021/08/01 07:29:58;;;;;;;;;;;;;;;24.61;42.65;100451.81;4996273;28;98582;-84
2021/08/01 07:32:24;;;;;;;;;;;;;;;24.60;42.86;100447.41;5009372;28;98021;-82
2021/08/01 07:34:51;;;;;;;;;;;;;;;24.95;42.14;100444.78;5007540;28;96645;-82
2021/08/01 07:37:19;;;;;;;;;;;;;;;24.66;43.02;100446.81;4995254;28;97294;-83
2021/08/01 07:39:45;;;;;;;;;;;;;;;24.61;42.79;100451.81;4998122;28;97865;-83
2021/08/01 07:42:12;;;;;;;;;;;;;;;25.06;42.11;100451.81;4995905;28;99542;-81
2021/08/01 07:44:47;;;;;;;;;;;;;;;25.42;41.50;100442.66;4997259;28;97070;-83
2021/08/01 07:47:14;;;;;;;;;;;;;;;25.65;40.59;100443.06;4997513;28;96884;-84
2021/08/01 07:49:40;;;;;;;;;;;;;;;25.67;40.31;100443.72;4997964;28;100716;-84
2021/08/01 07:52:07;;;;;;;;;;;;;;;25.71;40.25;100442.41;4998287;28;100216;-84
2021/08/01 07:54:35;;;;;;;;;;;;;;;25.86;40.14;100444.53;4995348;28;96871;-83
2021/08/01 07:57:02;;;;;;;;;;;;;;;24.95;41.67;100450.19;5000142;28;96787;-84
2021/08/01 07:59:28;;;;;;;;;;;;;;;25.28;41.01;100445.06;4990723;28;96967;-82
2021/08/01 08:01:54;;;;;;;;;;;;;;;25.39;40.80;100440.28;4998942;28;98057;-84
2021/08/01 08:04:21;;;;;;;;;;;;;;;23.94;44.05;100446.69;5009402;28;96712;-82
2021/08/01 08:06:47;;;;;;;;;;;;;;;24.63;43.30;100439.84;5015396;28;96819;-85
2021/08/01 08:09:14;;;;;;;;;;;;;;;24.79;42.84;100452.69;5010393;28;101216;-85
2021/08/01 08:11:42;;;;;;;;;;;;;;;25.10;42.24;100447.78;5004937;28;99900;-83
2021/08/01 08:14:09;;;;;;;;;;;;;;;25.21;41.69;100447.53;5014406;28;96793;-82
2021/08/01 08:16:36;;;;;;;;;;;;;;;25.21;41.64;100449.41;5014530;28;96670;-82
2021/08/01 08:19:02;;;;;;;;;;;;;;;25.27;41.36;100443.41;5015402;28;100493;-81
2021/08/01 08:21:29;;;;;;;;;;;;;;;24.55;42.95;100447.84;5017656;28;97778;-84
2021/08/01 08:23:55;;;;;;;;;;;;;;;25.26;41.56;100453.38;5017248;28;96676;-81
2021/08/01 08:26:22;;;;;;;;;;;;;;;25.74;40.62;100450.19;5017504;28;96829;-83
2021/08/01 08:28:49;;;;;;;;;;;;;;;25.77;40.59;100444.47;5014492;28;101118;-83
2021/08/01 08:31:16;;;;;;;;;;;;;;;26.09;40.35;100437.56;5017753;28;98915;-84
2021/08/01 08:33:43;;;;;;;;;;;;;;;26.41;39.54;100434.16;4998397;28;96563;-83
2021/08/01 08:36:10;;;;;;;;;;;;;;;26.52;39.48;100440.13;5003919;28;96790;-82
2021/08/01 08:38:36;;;;;;;;;;;;;;;26.88;38.80;100440.75;5017806;28;96900;-82
2021/08/01 08:41:02;;;;;;;;;;;;;;;25.87;39.75;100435.38;5015909;28;101530;-83
2021/08/01 08:43:29;;;;;;;;;;;;;;;26.81;38.29;100442.41;5007485;28;97078;-83
2021/08/01 08:45:59;;;;;;;;;;;;;;;26.94;37.97;100439.25;5007524;28;97413;-82
2021/08/01 08:48:26;;;;;;;;;;;;;;;27.20;37.34;100445.38;5004436;28;101936;-83
2021/08/01 08:50:54;;;;;;;;;;;;;;;26.81;38.34;100447.84;5002744;28;99115;-84
2021/08/01 08:53:22;;;;;;;;;;;;;;;27.17;37.65;100448.47;5003623;28;96695;-82
2021/08/01 08:55:49;;;;;;;;;;;;;;;27.46;36.94;100447.09;5012211;28;96683;-84
2021/08/01 08:58:20;;;;;;;;;;;;;;;27.14;37.39;100446.06;5007711;28;97846;-83
2021/08/01 09:00:46;;;;;;;;;;;;;;;27.01;37.66;100437.56;5006657;28;99511;-83
2021/08/01 09:03:14;;;;;;;;;;;;;;;26.85;37.90;100446.47;5005289;28;96902;-82
2021/08/01 09:05:41;;;;;;;;;;;;;;;26.68;38.55;100452.03;5003251;28;96840;-84
2021/08/01 09:08:08;;;;;;;;;;;;;;;26.67;38.15;100444.91;5003223;28;100674;-83
2021/08/01 09:10:34;;;;;;;;;;;;;;;26.88;38.11;100456.16;5004237;28;99812;-83
2021/08/01 09:13:05;;;;;;;;;;;;;;;27.30;37.30;100448.81;5009540;28;96749;-83
2021/08/01 09:15:32;;;;;;;;;;;;;;;27.50;36.43;100446.59;5005989;28;97342;-83
2021/08/01 09:18:00;;;;;;;;;;;;;;;27.66;35.88;100460.16;5004204;28;100955;-83
2021/08/01 09:20:29;;;;;;;;;;;;;;;27.91;35.34;100452.81;5002364;28;97993;-82
2021/08/01 09:23:06;;;;;;;;;;;;;;;28.06;35.38;100448.38;5004510;28;96883;-82
2021/08/01 09:25:34;;;;;;;;;;;;;;;28.25;35.12;100439.00;5007544;28;96699;-84
2021/08/01 09:28:05;;;;;;;;;;;;;;;28.08;34.76;100438.19;5006476;28;98583;-84
2021/08/01 09:30:44;;;;;;;;;;;;;;;28.04;34.87;100446.84;4999995;28;98608;-83
2021/08/01 09:33:11;;;;;;;;;;;;;;;28.13;34.96;100446.66;4987414;28;96773;-84
2021/08/01 09:35:39;;;;;;;;;;;;;;;27.87;35.07;100428.91;5018354;28;96870;-82
2021/08/01 09:38:05;;;;;;;;;;;;;;;28.03;35.42;100431.56;5019876;28;97084;-84
2021/08/01 09:40:33;;;;;;;;;;;;;;;28.01;35.67;100423.63;5008531;28;99560;-84
2021/08/01 09:43:06;;;;;;;;;;;;;;;27.93;35.62;100428.22;5003604;28;96765;-83
2021/08/01 09:45:38;;;;;;;;;;;;;;;27.90;35.61;100426.69;4990981;28;96965;-82
2021/08/01 09:48:15;;;;;;;;;;;;;;;27.98;35.62;100426.66;4998996;28;99884;-83
2021/08/01 09:50:56;;;;;;;;;;;;;;;27.94;35.92;100424.47;5011681;28;98706;-83
2021/08/01 09:53:24;;;;;;;;;;;;;;;27.87;35.66;100420.78;4993303;28;98851;-83
2021/08/01 09:56:05;;;;;;;;;;;;;;;27.88;35.95;100420.59;4998702;28;97470;-84
2021/08/01 09:58:34;;;;;;;;;;;;;;;27.71;35.53;100432.50;5009870;28;98293;-84
2021/08/01 10:01:03;;;;;;;;;;;;;;;27.69;35.86;100423.69;4999076;28;97732;-82
2021/08/01 10:03:36;;;;;;;;;;;;;;;27.49;36.37;100433.19;5009547;28;97070;-83
2021/08/01 10:06:10;;;;;;;;;;;;;;;27.51;36.87;100433.84;5004035;28;97327;-83
2021/08/01 10:08:39;;;;;;;;;;;;;;;26.55;37.79;100431.69;5009160;28;96979;-85
2021/08/01 10:11:13;;;;;;;;;;;;;;;26.94;37.31;100428.41;5004621;28;98751;-84
2021/08/01 10:13:40;;;;;;;;;;;;;;;27.16;37.34;100435.06;4991377;28;97309;-84
2021/08/01 10:16:07;;;;;;;;;;;;;;;27.52;36.51;100435.56;5002946;28;97885;-85
2021/08/01 10:18:34;;;;;;;;;;;;;;;27.62;36.26;100433.53;5002278;28;100258;-85
2021/08/01 10:21:01;;;;;;;;;;;;;;;27.70;36.00;100430.78;4997685;28;98740;-84
2021/08/01 10:23:28;;;;;;;;;;;;;;;27.47;36.53;100437.94;5008735;28;98730;-83
2021/08/01 10:26:09;;;;;;;;;;;;;;;27.42;35.95;100429.47;5015150;28;96956;-85
2021/08/01 10:28:41;;;;;;;;;;;;;;;27.48;36.12;100423.34;5010498;28;96900;-85
2021/08/01 10:31:10;;;;;;;;;;;;;;;27.35;36.77;100426.59;5016309;28;98185;-85
2021/08/01 10:33:47;;;;;;;;;;;;;;;27.28;36.73;100429.13;5011126;28;96707;-84
2021/08/01 10:36:15;;;;;;;;;;;;;;;27.66;36.41;100422.16;4997227;28;96902;-85
2021/08/01 10:38:46;;;;;;;;;;;;;;;27.62;36.05;100419.97;5020263;28;96877;-88
2021/08/01 10:44:31;;;;;;;;;;;;;;;27.71;36.61;100427.06;5012144;28;96749;-84
2021/08/01 10:47:02;;;;;;;;;;;;;;;27.53;36.25;100431.84;4997774;28;96590;-86
2021/08/01 10:49:28;;;;;;;;;;;;;;;27.88;35.42;100414.31;5010669;28;97525;-82
2021/08/01 10:51:55;;;;;;;;;;;;;;;27.98;35.50;100415.81;5017459;28;96886;-84
2021/08/01 10:54:34;;;;;;;;;;;;;;;28.08;35.39;100410.19;5023303;28;96747;-84
2021/08/01 10:57:20;;;;;;;;;;;;;;;27.96;35.13;100411.59;5018973;28;96861;-84
2021/08/01 11:00:10;;;;;;;;;;;;;;;28.09;35.61;100415.41;5012065;28;97914;-84
2021/08/01 11:05:49;;;;;;;;;;;;;;;28.29;34.14;100407.72;4995178;28;97010;-83
2021/08/01 11:08:17;;;;;;;;;;;;;;;28.04;34.25;100403.38;4995063;28;96783;-83
2021/08/01 11:10:44;;;;;;;;;;;;;;;27.61;35.20;100396.56;5004788;28;99000;-84
2021/08/01 11:13:28;;;;;;;;;;;;;;;27.29;35.42;100402.84;4999696;28;101614;-83
2021/08/01 11:15:56;;;;;;;;;;;;;;;28.22;33.61;100392.34;5007046;28;97497;-82
2021/08/01 11:18:30;;;;;;;;;;;;;;;28.38;33.47;100401.25;5011707;28;96814;-82
2021/08/01 11:20:56;;;;;;;;;;;;;;;28.27;33.04;100392.66;5000113;28;100091;-82
2021/08/01 11:23:43;;;;;;;;;;;;;;;27.08;35.26;100397.94;5006079;28;99637;-82
2021/08/01 11:26:14;;;;;;;;;;;;;;;27.37;34.66;100390.09;4989455;28;96718;-82
2021/08/01 11:28:41;;;;;;;;;;;;;;;27.26;34.61;100393.16;5006086;28;97264;-82
2021/08/01 11:31:10;;;;;;;;;;;;;;;27.29;34.62;100392.84;5023452;28;100729;-84
2021/08/01 11:33:42;;;;;;;;;;;;;;;27.50;34.35;100389.59;5001271;28;99253;-84
2021/08/01 11:36:19;;;;;;;;;;;;;;;27.81;33.82;100391.59;5002211;28;97288;-84
2021/08/01 11:38:59;;;;;;;;;;;;;;;27.84;33.71;100392.09;5001997;28;96990;-82
2021/08/01 11:41:34;;;;;;;;;;;;;;;27.75;34.25;100388.56;5000747;28;99969;-82
2021/08/01 11:44:02;;;;;;;;;;;;;;;28.24;33.72;100387.56;5001611;28;99200;-81
2021/08/01 11:46:29;;;;;;;;;;;;;;;28.11;33.90;100385.38;5001594;28;96932;-81
2021/08/01 11:48:57;;;;;;;;;;;;;;;28.50;32.98;100385.38;4987426;28;96669;-83
2021/08/01 11:51:27;;;;;;;;;;;;;;;28.12;33.50;100387.91;5003582;28;118559;-82
2021/08/01 11:53:53;;;;;;;;;;;;;;;28.38;33.44;100381.38;4991347;28;97281;-83
2021/08/01 11:56:20;;;;;;;;;;;;;;;29.01;32.22;100380.34;5004518;28;96872;-85
2021/08/01 11:58:54;;;;;;;;;;;;;;;29.23;31.89;100376.72;4991722;28;98181;-82
2021/08/01 12:01:21;;;;;;;;;;;;;;;29.16;31.46;100383.94;4991548;28;99732;-84
2021/08/01 12:09:57;;;;;;;;;;;;;;;28.31;32.49;100372.25;4980942;28;97650;-80
2021/08/01 12:12:40;;;;;;;;;;;;;;;29.12;31.72;100371.72;5002064;28;97854;-85
2021/08/01 12:15:26;;;;;;;;;;;;;;;29.26;31.74;100370.94;5016831;28;100519;-83
2021/08/01 12:17:54;;;;;;;;;;;;;;;29.25;31.57;100371.94;4997231;28;97412;-84
2021/08/01 12:20:31;;;;;;;;;;;;;;;29.38;31.64;100366.75;5007113;28;96836;-85
2021/08/01 12:22:58;;;;;;;;;;;;;;;29.31;31.89;100376.66;5003825;28;100832;-84
2021/08/01 12:25:39;;;;;;;;;;;;;;;29.53;31.82;100364.06;5007282;28;100654;-83
2021/08/01 12:28:06;;;;;;;;;;;;;;;29.20;31.69;100367.06;4999593;28;96986;-82
2021/08/01 12:30:34;;;;;;;;;;;;;;;29.11;31.94;100368.16;4999968;28;97105;-84
2021/08/01 12:33:08;;;;;;;;;;;;;;;28.81;32.56;100360.94;4999128;28;99118;-84
2021/08/01 12:35:39;;;;;;;;;;;;;;;28.78;32.32;100353.13;5001684;28;100866;-83
2021/08/01 12:38:08;;;;;;;;;;;;;;;28.77;32.69;100356.88;5002151;28;97173;-84
2021/08/01 12:40:36;;;;;;;;;;;;;;;28.93;32.42;100363.03;5011318;28;97018;-85
2021/08/01 12:43:05;;;;;;;;;;;;;;;29.23;31.64;100360.41;5001785;28;99584;-83
2021/08/01 12:45:33;;;;;;;;;;;;;;;29.39;31.49;100351.28;4999022;28;101311;-84
2021/08/01 12:48:00;;;;;;;;;;;;;;;29.56;31.08;100359.09;5005512;28;98961;-84
2021/08/01 12:53:37;;;;;;;;;;;;;;;28.87;32.07;100361.06;4988184;28;96948;-82
2021/08/01 12:56:07;;;;;;;;;;;;;;;28.97;31.86;100359.94;5035363;28;100676;-85
2021/08/01 12:58:33;;;;;;;;;;;;;;;28.90;32.01;100362.53;5016860;28;98336;-81